Time;durP1;ratioP1;P1;durP2;ratioP2;P2;SDS_P1;SDS_P2;PMS_P1;PMS_P2;Temp;Humidity;BMP_temperature;BMP_pressure;BME280_temperature;BME280_humidity;BME280_pressure;Samples;Min_cycle;Max_cycle;Signal;HPM_P1;HPM_P2
2023/06/09 00:02:08;;;;;;;2.78;2.70;;;;;;;;;;5175926;23;20035;-58
2023/06/09 00:04:30;;;;;;;3.40;1.77;;;;;;;;;;5175971;23;20031;-57
2023/06/09 00:06:54;;;;;;;4.55;2.78;;;;;;;;;;5175816;23;20109;-57
2023/06/09 00:09:15;;;;;;;2.38;2.38;;;;;;;;;;5175831;23;20058;-58
2023/06/09 00:11:35;;;;;;;3.25;2.80;;;;;;;;;;5175945;23;20023;-57
2023/06/09 00:13:56;;;;;;;3.20;3.00;;;;;;;;;;5175846;23;20062;-57
2023/06/09 00:16:16;;;;;;;2.30;2.20;;;;;;;;;;5175702;23;20027;-57
2023/06/09 00:18:40;;;;;;;2.63;2.53;;;;;;;;;;5175781;23;20242;-57
2023/06/09 00:21:00;;;;;;;3.17;3.08;;;;;;;;;;5175759;23;20027;-58
2023/06/09 00:23:21;;;;;;;2.88;2.67;;;;;;;;;;5175668;23;20043;-58
2023/06/09 00:25:41;;;;;;;3.15;2.83;;;;;;;;;;5175693;23;20263;-57
2023/06/09 00:28:01;;;;;;;2.60;2.50;;;;;;;;;;5175761;23;20110;-57
2023/06/09 00:30:22;;;;;;;2.60;2.50;;;;;;;;;;5175612;23;20062;-58
2023/06/09 00:32:58;;;;;;;2.67;2.63;;;;;;;;;;5175490;23;20030;-57
2023/06/09 00:35:19;;;;;;;5.47;3.03;;;;;;;;;;5175626;23;20024;-58
2023/06/09 00:37:39;;;;;;;2.78;2.67;;;;;;;;;;5175691;23;20372;-57
2023/06/09 00:40:00;;;;;;;3.35;3.22;;;;;;;;;;5175335;23;20075;-57
2023/06/09 00:42:20;;;;;;;3.20;3.10;;;;;;;;;;5175476;23;20088;-57
2023/06/09 00:44:40;;;;;;;4.70;3.35;;;;;;;;;;5175596;23;20065;-58
2023/06/09 00:47:01;;;;;;;5.15;2.67;;;;;;;;;;5175459;23;20023;-57
2023/06/09 00:49:22;;;;;;;2.80;2.70;;;;;;;;;;5175505;23;20051;-57
2023/06/09 00:51:43;;;;;;;2.97;2.85;;;;;;;;;;5175617;23;20207;-57
2023/06/09 00:54:04;;;;;;;2.75;2.55;;;;;;;;;;5175493;23;20023;-57
2023/06/09 00:56:24;;;;;;;3.55;3.45;;;;;;;;;;5175410;23;20066;-58
2023/06/09 00:58:45;;;;;;;4.32;2.63;;;;;;;;;;5175465;23;20023;-57
2023/06/09 01:01:05;;;;;;;3.38;3.15;;;;;;;;;;5176608;23;20035;-57
2023/06/09 01:03:26;;;;;;;2.58;2.38;;;;;;;;;;5175001;23;20023;-58
2023/06/09 01:05:48;;;;;;;2.97;2.78;;;;;;;;;;5175548;23;20042;-57
2023/06/09 01:08:18;;;;;;;2.58;2.47;;;;;;;;;;5175864;23;20038;-58
2023/06/09 01:10:42;;;;;;;2.60;2.40;;;;;;;;;;5176006;23;20058;-58
2023/06/09 01:13:14;;;;;;;3.25;2.83;;;;;;;;;;5175827;23;20062;-58
2023/06/09 01:15:36;;;;;;;2.47;2.40;;;;;;;;;;5175862;23;20042;-58
2023/06/09 01:17:57;;;;;;;2.90;2.70;;;;;;;;;;5175956;23;20024;-57
2023/06/09 01:20:35;;;;;;;2.50;2.50;;;;;;;;;;5175829;23;20027;-57
2023/06/09 01:23:20;;;;;;;6.72;2.63;;;;;;;;;;5166257;23;20218;-58
2023/06/09 01:25:42;;;;;;;3.03;2.55;;;;;;;;;;5147107;22;20023;-57
2023/06/09 01:28:05;;;;;;;2.80;2.70;;;;;;;;;;5176442;23;20027;-57
2023/06/09 01:30:30;;;;;;;2.42;2.30;;;;;;;;;;5170536;23;20350;-57
2023/06/09 01:32:51;;;;;;;3.47;3.28;;;;;;;;;;5176590;23;20212;-57
2023/06/09 01:35:11;;;;;;;3.13;3.13;;;;;;;;;;5176445;23;20058;-57
2023/06/09 01:37:32;;;;;;;2.45;2.35;;;;;;;;;;5176523;23;20256;-58
2023/06/09 01:39:52;;;;;;;3.45;2.70;;;;;;;;;;5176351;23;20339;-57
2023/06/09 01:42:13;;;;;;;2.72;2.63;;;;;;;;;;5176439;23;20042;-57
2023/06/09 01:44:34;;;;;;;2.72;2.72;;;;;;;;;;5176465;23;20058;-57
2023/06/09 01:46:55;;;;;;;6.43;3.50;;;;;;;;;;5176483;23;20330;-57
2023/06/09 01:49:21;;;;;;;2.28;2.17;;;;;;;;;;5176483;23;20030;-57
2023/06/09 01:51:52;;;;;;;3.63;3.15;;;;;;;;;;5176359;23;20026;-57
2023/06/09 01:54:15;;;;;;;5.13;2.40;;;;;;;;;;5176410;23;20031;-58
2023/06/09 01:56:42;;;;;;;7.07;3.00;;;;;;;;;;5176467;23;20051;-58
2023/06/09 01:59:06;;;;;;;3.28;3.17;;;;;;;;;;5167609;23;20022;-57
2023/06/09 02:01:27;;;;;;;2.55;2.45;;;;;;;;;;5176382;23;20080;-57
2023/06/09 02:03:49;;;;;;;2.38;2.33;;;;;;;;;;5184928;23;20101;-57
2023/06/09 02:06:11;;;;;;;2.47;2.38;;;;;;;;;;5176474;23;20066;-58
2023/06/09 02:08:32;;;;;;;3.07;2.50;;;;;;;;;;5176417;23;20063;-57
2023/06/09 02:10:52;;;;;;;3.45;2.35;;;;;;;;;;5176293;23;20043;-57
2023/06/09 02:13:19;;;;;;;2.75;2.58;;;;;;;;;;5176418;23;20027;-57
2023/06/09 02:15:40;;;;;;;4.50;2.63;;;;;;;;;;5176356;23;20023;-57
2023/06/09 02:18:01;;;;;;;2.47;2.47;;;;;;;;;;5176266;23;20050;-57
2023/06/09 02:20:22;;;;;;;4.15;3.17;;;;;;;;;;5176151;23;20327;-58
2023/06/09 02:22:42;;;;;;;5.55;2.53;;;;;;;;;;5133060;23;20260;-57
2023/06/09 02:25:04;;;;;;;2.47;2.47;;;;;;;;;;5176302;23;20066;-57
2023/06/09 02:27:26;;;;;;;2.30;2.10;;;;;;;;;;5176354;23;20031;-58
2023/06/09 02:29:46;;;;;;;2.20;2.00;;;;;;;;;;5176364;23;20023;-57
2023/06/09 02:32:06;;;;;;;2.60;2.60;;;;;;;;;;5176298;23;20061;-58
2023/06/09 02:34:29;;;;;;;2.95;2.72;;;;;;;;;;5176238;23;20038;-57
2023/06/09 02:36:52;;;;;;;;;;;;;;;;;;5176836;23;20035;-57
2023/06/09 02:39:14;;;;;;;2.13;2.13;;;;;;;;;;5176222;23;19953;-57
2023/06/09 02:41:35;;;;;;;2.22;2.13;;;;;;;;;;5176255;23;20026;-57
2023/06/09 02:43:55;;;;;;;2.20;2.20;;;;;;;;;;5176192;23;20291;-58
2023/06/09 02:46:17;;;;;;;3.05;2.78;;;;;;;;;;5176294;23;20027;-57
2023/06/09 02:48:37;;;;;;;2.65;2.55;;;;;;;;;;5176221;23;20206;-57
2023/06/09 02:50:57;;;;;;;2.17;2.00;;;;;;;;;;5176247;23;20023;-58
2023/06/09 02:53:18;;;;;;;2.00;2.00;;;;;;;;;;5176178;23;20043;-58
2023/06/09 02:55:38;;;;;;;3.35;1.98;;;;;;;;;;5176232;23;20022;-57
2023/06/09 02:57:58;;;;;;;2.10;2.00;;;;;;;;;;5176112;23;20369;-58
2023/06/09 03:00:19;;;;;;;2.85;2.65;;;;;;;;;;5176111;23;20023;-57
2023/06/09 03:02:41;;;;;;;2.28;2.28;;;;;;;;;;5168990;23;20353;-58
2023/06/09 03:05:01;;;;;;;2.25;2.10;;;;;;;;;;5176175;23;20023;-57
2023/06/09 03:07:21;;;;;;;1.55;1.55;;;;;;;;;;5176169;23;20027;-57
2023/06/09 03:09:41;;;;;;;2.67;2.40;;;;;;;;;;5176118;23;20337;-57
2023/06/09 03:12:02;;;;;;;2.92;2.70;;;;;;;;;;5176105;23;20038;-58
2023/06/09 03:14:23;;;;;;;2.83;2.72;;;;;;;;;;5176086;23;20027;-58
2023/06/09 03:16:43;;;;;;;2.30;2.30;;;;;;;;;;5176209;23;20039;-58
2023/06/09 03:19:04;;;;;;;3.33;2.55;;;;;;;;;;5176044;23;20023;-58
2023/06/09 03:21:24;;;;;;;4.93;2.63;;;;;;;;;;5176064;23;20023;-58
2023/06/09 03:23:45;;;;;;;4.38;2.25;;;;;;;;;;5175739;23;20183;-58
2023/06/09 03:26:05;;;;;;;3.38;3.28;;;;;;;;;;5176140;23;20126;-57
2023/06/09 03:28:25;;;;;;;4.53;3.08;;;;;;;;;;5176005;23;20026;-58
2023/06/09 03:30:46;;;;;;;3.15;2.80;;;;;;;;;;5176130;23;20415;-58
2023/06/09 03:33:08;;;;;;;4.95;2.67;;;;;;;;;;5176161;23;20360;-58
2023/06/09 03:35:29;;;;;;;3.13;2.92;;;;;;;;;;5176086;23;20042;-58
2023/06/09 03:37:49;;;;;;;2.75;2.65;;;;;;;;;;5176036;23;20027;-58
2023/06/09 03:40:09;;;;;;;3.35;2.80;;;;;;;;;;5175940;23;20026;-58
2023/06/09 03:42:30;;;;;;;2.70;2.60;;;;;;;;;;5176001;23;20330;-57
2023/06/09 03:44:57;;;;;;;3.35;3.25;;;;;;;;;;5175992;23;20056;-58
2023/06/09 03:47:18;;;;;;;2.55;2.42;;;;;;;;;;5175979;23;20077;-58
2023/06/09 03:49:38;;;;;;;3.40;3.10;;;;;;;;;;5176052;23;20270;-57
2023/06/09 03:51:58;;;;;;;2.22;2.22;;;;;;;;;;5175893;23;20027;-58
2023/06/09 03:54:18;;;;;;;2.67;2.58;;;;;;;;;;5175926;23;20334;-58
2023/06/09 03:56:38;;;;;;;2.67;2.63;;;;;;;;;;5175976;23;20026;-58
2023/06/09 03:58:59;;;;;;;3.67;3.00;;;;;;;;;;5175887;23;20362;-57
2023/06/09 04:01:21;;;;;;;2.90;2.90;;;;;;;;;;5175867;23;20084;-57
2023/06/09 04:03:41;;;;;;;4.13;3.20;;;;;;;;;;5176053;23;20022;-57
2023/06/09 04:06:03;;;;;;;3.25;3.25;;;;;;;;;;5175799;23;20277;-57
2023/06/09 04:08:23;;;;;;;3.10;3.00;;;;;;;;;;5175767;23;20094;-57
2023/06/09 04:10:43;;;;;;;3.60;3.30;;;;;;;;;;5184291;23;20038;-58
2023/06/09 04:13:04;;;;;;;5.28;3.10;;;;;;;;;;5175847;23;20038;-57
2023/06/09 04:15:24;;;;;;;2.83;2.72;;;;;;;;;;5184155;23;20038;-57
2023/06/09 04:17:45;;;;;;;2.83;2.72;;;;;;;;;;5175893;23;20338;-57
2023/06/09 04:20:09;;;;;;;3.45;3.28;;;;;;;;;;5175638;23;20027;-57
2023/06/09 04:22:30;;;;;;;2.63;2.47;;;;;;;;;;5175627;23;20334;-58
2023/06/09 04:24:50;;;;;;;2.50;2.30;;;;;;;;;;5175663;23;20067;-58
2023/06/09 04:27:13;;;;;;;2.67;2.58;;;;;;;;;;5175864;23;20050;-57
2023/06/09 04:29:34;;;;;;;3.17;2.97;;;;;;;;;;5175709;23;20027;-58
2023/06/09 04:31:58;;;;;;;2.45;2.30;;;;;;;;;;5175676;23;20027;-58
2023/06/09 04:34:18;;;;;;;3.33;3.10;;;;;;;;;;5175708;23;20027;-58
2023/06/09 04:36:39;;;;;;;3.50;3.50;;;;;;;;;;5176761;23;20052;-58
2023/06/09 04:38:59;;;;;;;4.57;4.28;;;;;;;;;;5176553;23;20039;-58
2023/06/09 04:41:20;;;;;;;5.63;3.10;;;;;;;;;;5176661;23;20050;-58
2023/06/09 04:43:41;;;;;;;4.05;3.65;;;;;;;;;;5176729;23;20023;-58
2023/06/09 04:46:02;;;;;;;3.30;2.97;;;;;;;;;;5176626;23;20027;-58
2023/06/09 04:48:23;;;;;;;3.40;3.15;;;;;;;;;;5176578;23;20086;-58
2023/06/09 04:50:44;;;;;;;3.25;3.15;;;;;;;;;;5176846;23;20091;-58
2023/06/09 04:53:06;;;;;;;2.55;2.55;;;;;;;;;;5176673;23;20514;-58
2023/06/09 04:55:29;;;;;;;3.73;3.53;;;;;;;;;;5176554;23;20066;-58
2023/06/09 04:57:55;;;;;;;3.38;3.25;;;;;;;;;;5176723;23;20289;-58
2023/06/09 05:00:16;;;;;;;2.63;2.42;;;;;;;;;;5176600;23;20024;-58
2023/06/09 05:02:36;;;;;;;4.88;3.22;;;;;;;;;;5176428;23;20026;-58
2023/06/09 05:04:57;;;;;;;2.70;2.60;;;;;;;;;;5176525;23;20342;-58
2023/06/09 05:07:17;;;;;;;3.15;2.72;;;;;;;;;;5176645;23;20023;-58
2023/06/09 05:09:37;;;;;;;3.38;3.22;;;;;;;;;;5176464;23;20364;-59
2023/06/09 05:11:57;;;;;;;3.00;2.80;;;;;;;;;;5159853;23;20385;-58
2023/06/09 05:14:17;;;;;;;5.85;3.70;;;;;;;;;;5176719;23;20078;-59
2023/06/09 05:16:38;;;;;;;3.25;3.15;;;;;;;;;;5176571;23;20050;-59
2023/06/09 05:18:58;;;;;;;3.15;3.05;;;;;;;;;;5176553;23;20039;-59
2023/06/09 05:21:21;;;;;;;2.38;2.28;;;;;;;;;;5176626;23;20070;-59
2023/06/09 05:23:41;;;;;;;2.30;2.15;;;;;;;;;;5176627;23;20077;-59
2023/06/09 05:26:02;;;;;;;2.58;2.47;;;;;;;;;;5176387;23;20062;-59
2023/06/09 05:28:22;;;;;;;3.08;2.92;;;;;;;;;;5176566;23;20226;-59
2023/06/09 05:30:43;;;;;;;2.45;2.25;;;;;;;;;;5176676;23;20098;-59
2023/06/09 05:33:03;;;;;;;2.47;2.42;;;;;;;;;;5176338;23;20026;-59
2023/06/09 05:35:23;;;;;;;2.30;2.20;;;;;;;;;;5176507;23;20107;-59
2023/06/09 05:37:51;;;;;;;2.38;2.38;;;;;;;;;;5176634;23;20074;-59
2023/06/09 05:40:11;;;;;;;3.00;2.90;;;;;;;;;;5176313;23;20088;-59
2023/06/09 05:42:32;;;;;;;2.90;2.80;;;;;;;;;;5176369;23;20061;-59
2023/06/09 05:44:52;;;;;;;2.28;2.28;;;;;;;;;;5176550;23;20039;-59
2023/06/09 05:47:12;;;;;;;2.10;2.10;;;;;;;;;;5176284;23;20078;-59
2023/06/09 05:49:34;;;;;;;1.75;1.75;;;;;;;;;;5176259;23;20027;-59
2023/06/09 05:51:55;;;;;;;2.28;2.28;;;;;;;;;;5176492;23;20081;-59
2023/06/09 05:54:15;;;;;;;2.17;2.17;;;;;;;;;;5176495;23;20043;-58
2023/06/09 05:56:37;;;;;;;2.30;2.20;;;;;;;;;;5154671;23;20071;-58
2023/06/09 05:59:03;;;;;;;2.08;1.98;;;;;;;;;;5176333;23;20027;-59
2023/06/09 06:01:23;;;;;;;2.70;2.30;;;;;;;;;;5176541;23;20066;-59
2023/06/09 06:03:44;;;;;;;2.15;2.15;;;;;;;;;;5176448;23;20031;-59
2023/06/09 06:06:05;;;;;;;3.58;2.90;;;;;;;;;;5176302;23;20115;-59
2023/06/09 06:08:25;;;;;;;2.58;2.47;;;;;;;;;;5176523;23;20043;-59
2023/06/09 06:10:45;;;;;;;2.33;2.17;;;;;;;;;;5163253;23;20023;-58
2023/06/09 06:13:05;;;;;;;2.22;2.22;;;;;;;;;;5176181;23;20027;-58
2023/06/09 06:15:26;;;;;;;2.13;2.03;;;;;;;;;;5176517;23;20065;-58
2023/06/09 06:17:46;;;;;;;2.40;2.25;;;;;;;;;;5176475;23;20066;-58
2023/06/09 06:20:06;;;;;;;2.50;2.40;;;;;;;;;;5176127;23;20031;-58
2023/06/09 06:22:27;;;;;;;2.40;2.30;;;;;;;;;;5176314;23;20034;-58
2023/06/09 06:24:47;;;;;;;2.63;2.20;;;;;;;;;;5176430;23;20291;-58
2023/06/09 06:27:08;;;;;;;2.05;1.95;;;;;;;;;;5176193;23;20034;-58
2023/06/09 06:29:30;;;;;;;2.58;2.38;;;;;;;;;;5176180;23;20076;-58
2023/06/09 06:31:51;;;;;;;5.93;3.28;;;;;;;;;;5176348;23;20027;-58
2023/06/09 06:34:11;;;;;;;2.17;2.08;;;;;;;;;;5176338;23;20055;-58
2023/06/09 06:36:32;;;;;;;1.88;1.70;;;;;;;;;;5176160;23;20066;-58
2023/06/09 06:38:52;;;;;;;2.08;1.95;;;;;;;;;;5176376;23;20330;-58
2023/06/09 06:41:12;;;;;;;1.77;1.77;;;;;;;;;;5176148;23;20042;-58
2023/06/09 06:43:32;;;;;;;1.42;1.33;;;;;;;;;;5176102;23;20023;-58
2023/06/09 06:45:55;;;;;;;2.60;2.17;;;;;;;;;;5176338;23;20027;-58
2023/06/09 06:48:15;;;;;;;3.25;1.70;;;;;;;;;;5153842;23;20068;-58
2023/06/09 06:50:35;;;;;;;1.90;1.90;;;;;;;;;;5176079;23;20066;-58
2023/06/09 06:52:55;;;;;;;2.38;1.50;;;;;;;;;;5176185;23;20065;-58
2023/06/09 06:55:16;;;;;;;2.88;1.55;;;;;;;;;;5176329;23;20150;-58
2023/06/09 06:57:36;;;;;;;1.10;1.10;;;;;;;;;;5175484;23;20022;-58
2023/06/09 06:59:56;;;;;;;1.50;1.40;;;;;;;;;;5175975;23;20228;-58
2023/06/09 07:02:24;;;;;;;2.53;1.42;;;;;;;;;;5176303;23;20023;-59
2023/06/09 07:04:44;;;;;;;2.20;1.50;;;;;;;;;;5176203;23;20026;-58
2023/06/09 07:07:04;;;;;;;1.10;1.10;;;;;;;;;;5175957;23;20054;-58
2023/06/09 07:09:25;;;;;;;1.30;1.30;;;;;;;;;;5176244;23;20051;-58
2023/06/09 07:11:45;;;;;;;1.10;1.10;;;;;;;;;;5176187;23;20038;-58
2023/06/09 07:14:05;;;;;;;1.48;1.48;;;;;;;;;;5176047;23;20027;-59
2023/06/09 07:16:26;;;;;;;1.35;1.35;;;;;;;;;;5176193;23;20023;-59
2023/06/09 07:18:46;;;;;;;3.58;1.35;;;;;;;;;;5176319;23;20230;-59
2023/06/09 07:21:06;;;;;;;2.65;1.20;;;;;;;;;;5175977;23;20070;-59
2023/06/09 07:23:27;;;;;;;1.30;1.20;;;;;;;;;;5176110;23;20042;-59
2023/06/09 07:25:47;;;;;;;1.10;1.10;;;;;;;;;;5176231;23;20074;-58
2023/06/09 07:28:07;;;;;;;1.10;1.10;;;;;;;;;;5175995;23;20210;-59
2023/06/09 07:30:27;;;;;;;1.00;1.00;;;;;;;;;;5175948;23;20023;-58
2023/06/09 07:32:47;;;;;;;1.30;1.20;;;;;;;;;;5176271;23;20043;-59
2023/06/09 07:35:12;;;;;;;1.00;1.00;;;;;;;;;;5176082;23;20030;-59
2023/06/09 07:37:32;;;;;;;1.20;1.20;;;;;;;;;;5175882;23;20062;-58
2023/06/09 07:39:53;;;;;;;1.13;1.05;;;;;;;;;;5175921;23;20023;-59
2023/06/09 07:42:28;;;;;;;1.23;1.13;;;;;;;;;;5176134;23;20057;-59
2023/06/09 07:44:48;;;;;;;1.20;1.20;;;;;;;;;;5175958;23;20056;-59
2023/06/09 07:47:08;;;;;;;1.17;1.10;;;;;;;;;;5175816;23;20342;-58
2023/06/09 07:49:28;;;;;;;2.90;1.10;;;;;;;;;;5176102;23;20337;-59
2023/06/09 07:51:50;;;;;;;1.10;1.00;;;;;;;;;;5176006;23;20043;-58
2023/06/09 07:54:10;;;;;;;1.95;1.17;;;;;;;;;;5175820;23;20057;-59
2023/06/09 07:56:30;;;;;;;1.35;1.30;;;;;;;;;;5176035;23;20062;-59
2023/06/09 07:58:51;;;;;;;1.20;1.20;;;;;;;;;;5176050;23;20022;-59
2023/06/09 08:01:11;;;;;;;1.70;1.33;;;;;;;;;;5175733;23;20031;-58
2023/06/09 08:03:34;;;;;;;1.35;1.13;;;;;;;;;;5175969;23;20023;-59
2023/06/09 08:05:56;;;;;;;2.88;1.10;;;;;;;;;;5176027;23;20089;-58
2023/06/09 08:08:16;;;;;;;2.08;1.20;;;;;;;;;;5175903;23;20031;-58
2023/06/09 08:10:37;;;;;;;1.05;1.05;;;;;;;;;;5175740;23;20059;-58
2023/06/09 08:12:57;;;;;;;1.95;1.48;;;;;;;;;;5175979;23;20027;-58
2023/06/09 08:15:18;;;;;;;0.90;0.90;;;;;;;;;;5175774;23;20022;-58
2023/06/09 08:17:39;;;;;;;0.90;0.90;;;;;;;;;;5175628;23;20310;-58
2023/06/09 08:19:59;;;;;;;2.08;0.93;;;;;;;;;;5175725;23;20023;-59
2023/06/09 08:22:19;;;;;;;1.88;1.20;;;;;;;;;;5175871;23;20027;-58
2023/06/09 08:24:39;;;;;;;1.10;1.10;;;;;;;;;;5175699;23;20024;-58
2023/06/09 08:27:00;;;;;;;1.77;1.10;;;;;;;;;;5175859;23;20035;-58
2023/06/09 08:29:20;;;;;;;1.10;1.10;;;;;;;;;;5175814;23;20050;-58
2023/06/09 08:31:41;;;;;;;2.78;1.20;;;;;;;;;;5175563;23;20027;-58
2023/06/09 08:34:01;;;;;;;0.93;0.90;;;;;;;;;;5175694;23;20023;-59
2023/06/09 08:36:22;;;;;;;1.00;1.00;;;;;;;;;;5175752;23;20023;-59
2023/06/09 08:38:43;;;;;;;1.10;1.00;;;;;;;;;;5175576;23;20031;-59
2023/06/09 08:41:07;;;;;;;2.90;1.00;;;;;;;;;;5175391;23;20039;-58
2023/06/09 08:43:28;;;;;;;1.67;0.93;;;;;;;;;;5175698;23;20066;-58
2023/06/09 08:45:49;;;;;;;1.40;1.40;;;;;;;;;;5175571;23;20146;-58
2023/06/09 08:48:13;;;;;;;1.77;1.67;;;;;;;;;;5175402;23;20026;-58
2023/06/09 08:50:41;;;;;;;2.05;1.42;;;;;;;;;;5175545;23;20083;-58
2023/06/09 08:53:01;;;;;;;1.10;1.00;;;;;;;;;;5175631;23;20031;-59
2023/06/09 08:55:22;;;;;;;1.30;1.20;;;;;;;;;;5175451;23;20026;-59
2023/06/09 08:57:43;;;;;;;0.93;0.93;;;;;;;;;;5175399;23;20062;-59
2023/06/09 09:00:07;;;;;;;1.75;1.08;;;;;;;;;;5175506;23;20370;-59
2023/06/09 09:02:28;;;;;;;1.20;0.93;;;;;;;;;;5175465;23;20066;-59
2023/06/09 09:04:49;;;;;;;1.00;1.00;;;;;;;;;;5175235;23;20074;-58
2023/06/09 09:07:11;;;;;;;1.25;1.00;;;;;;;;;;5175364;23;20057;-58
2023/06/09 09:09:31;;;;;;;1.27;0.90;;;;;;;;;;5175535;23;20023;-58
2023/06/09 09:11:52;;;;;;;0.90;0.90;;;;;;;;;;5175332;23;20223;-59
2023/06/09 09:14:14;;;;;;;0.90;0.90;;;;;;;;;;5175433;23;20350;-59
2023/06/09 09:16:34;;;;;;;2.13;0.90;;;;;;;;;;5175441;23;20035;-59
2023/06/09 09:18:55;;;;;;;1.20;1.00;;;;;;;;;;5175271;23;20062;-59
2023/06/09 09:21:24;;;;;;;1.00;1.00;;;;;;;;;;5175627;23;20059;-59
2023/06/09 09:23:54;;;;;;;0.90;0.90;;;;;;;;;;5176584;23;20363;-59
2023/06/09 09:26:18;;;;;;;1.27;0.90;;;;;;;;;;5176642;23;20026;-58
2023/06/09 09:28:39;;;;;;;1.75;0.80;;;;;;;;;;5176501;23;20211;-59
2023/06/09 09:31:00;;;;;;;1.52;0.90;;;;;;;;;;5176406;23;20031;-58
2023/06/09 09:33:22;;;;;;;0.90;0.90;;;;;;;;;;5176533;23;20023;-59
2023/06/09 09:35:47;;;;;;;0.90;0.90;;;;;;;;;;5176549;23;20042;-58
2023/06/09 09:38:12;;;;;;;1.60;0.80;;;;;;;;;;5167242;23;20023;-58
2023/06/09 09:40:33;;;;;;;0.80;0.80;;;;;;;;;;5176335;23;20024;-58
2023/06/09 09:42:53;;;;;;;2.17;1.00;;;;;;;;;;5176685;23;20057;-58
2023/06/09 09:45:15;;;;;;;1.00;0.80;;;;;;;;;;5176412;23;20350;-58
2023/06/09 09:47:37;;;;;;;0.90;0.90;;;;;;;;;;5176365;23;20062;-58
2023/06/09 09:50:00;;;;;;;1.38;0.80;;;;;;;;;;5176490;23;20342;-58
2023/06/09 09:52:32;;;;;;;0.90;0.90;;;;;;;;;;5176508;23;20046;-58
2023/06/09 09:54:53;;;;;;;1.00;0.90;;;;;;;;;;5176381;23;20341;-58
2023/06/09 09:57:13;;;;;;;1.42;0.82;;;;;;;;;;5176411;23;20367;-58
2023/06/09 09:59:34;;;;;;;0.85;0.85;;;;;;;;;;5176367;23;20216;-58
2023/06/09 10:01:56;;;;;;;1.02;1.02;;;;;;;;;;5176340;23;20057;-59
2023/06/09 10:04:17;;;;;;;0.90;0.90;;;;;;;;;;5176360;23;20077;-58
2023/06/09 10:06:38;;;;;;;0.98;0.98;;;;;;;;;;5176395;23;20027;-58
2023/06/09 10:08:58;;;;;;;2.00;0.90;;;;;;;;;;5176384;23;20031;-58
2023/06/09 10:11:20;;;;;;;1.10;1.10;;;;;;;;;;5176203;23;20325;-58
2023/06/09 10:13:41;;;;;;;0.90;0.90;;;;;;;;;;5176421;23;20062;-59
2023/06/09 10:16:02;;;;;;;0.90;0.90;;;;;;;;;;5162454;23;20114;-58
2023/06/09 10:18:23;;;;;;;1.00;1.00;;;;;;;;;;5176235;23;20027;-58
2023/06/09 10:20:44;;;;;;;2.05;1.00;;;;;;;;;;5176042;23;20027;-58
2023/06/09 10:23:05;;;;;;;2.05;0.93;;;;;;;;;;5176413;23;20023;-58
2023/06/09 10:25:28;;;;;;;0.90;0.90;;;;;;;;;;5176279;23;20035;-58
2023/06/09 10:27:50;;;;;;;0.90;0.90;;;;;;;;;;5176225;23;20062;-59
2023/06/09 10:30:12;;;;;;;1.95;0.90;;;;;;;;;;5176263;23;20062;-58
2023/06/09 10:32:34;;;;;;;1.20;1.05;;;;;;;;;;5175602;23;20096;-58
2023/06/09 10:34:57;;;;;;;1.75;0.85;;;;;;;;;;5176237;23;20047;-59
2023/06/09 10:37:30;;;;;;;1.03;0.90;;;;;;;;;;5176206;23;20043;-59
2023/06/09 10:40:11;;;;;;;0.93;0.93;;;;;;;;;;5175974;23;20306;-58
2023/06/09 10:42:31;;;;;;;1.30;1.20;;;;;;;;;;5176321;23;20382;-59
2023/06/09 10:55:46;;;;;;;0.90;0.90;;;;;;;;;;5184628;23;20062;-59
2023/06/09 10:58:27;;;;;;;0.80;0.80;;;;;;;;;;5154919;23;20027;-59
2023/06/09 11:01:07;;;;;;;0.80;0.80;;;;;;;;;;5176053;23;20027;-59
2023/06/09 11:03:30;;;;;;;0.82;0.82;;;;;;;;;;5176284;23;20031;-59
2023/06/09 11:05:59;;;;;;;0.70;0.70;;;;;;;;;;5176100;23;20419;-58
2023/06/09 11:08:21;;;;;;;0.70;0.70;;;;;;;;;;5176137;23;20079;-59
2023/06/09 11:10:45;;;;;;;1.85;0.70;;;;;;;;;;5176211;23;20023;-59
2023/06/09 11:13:25;;;;;;;0.88;0.80;;;;;;;;;;5176164;23;20027;-60
2023/06/09 11:16:01;;;;;;;1.48;0.70;;;;;;;;;;5176117;23;20334;-59
2023/06/09 11:18:22;;;;;;;0.80;0.80;;;;;;;;;;5176016;23;20211;-59
2023/06/09 11:20:45;;;;;;;;;;;;;;;;;;5176369;23;20243;-59
2023/06/09 11:23:06;;;;;;;0.80;0.77;;;;;;;;;;5176146;23;19918;-59
2023/06/09 11:25:30;;;;;;;1.75;0.80;;;;;;;;;;5176101;23;20050;-59
2023/06/09 11:27:56;;;;;;;0.70;0.70;;;;;;;;;;5176153;23;20066;-59
2023/06/09 11:30:18;;;;;;;0.70;0.70;;;;;;;;;;5176107;23;20411;-59
2023/06/09 11:32:53;;;;;;;0.70;0.70;;;;;;;;;;5176003;23;20242;-59
2023/06/09 11:35:28;;;;;;;0.70;0.70;;;;;;;;;;5176054;23;20027;-59
2023/06/09 11:37:52;;;;;;;1.73;0.80;;;;;;;;;;5175951;23;20061;-60
2023/06/09 11:40:15;;;;;;;1.02;0.75;;;;;;;;;;5175879;23;20022;-59
2023/06/09 11:42:38;;;;;;;0.70;0.70;;;;;;;;;;5176030;23;20061;-61
2023/06/09 11:45:01;;;;;;;0.70;0.70;;;;;;;;;;5175744;23;20031;-61
2023/06/09 11:47:29;;;;;;;0.70;0.70;;;;;;;;;;5176036;23;20343;-61
2023/06/09 11:50:04;;;;;;;0.70;0.70;;;;;;;;;;5154139;23;20054;-61
2023/06/09 11:52:27;;;;;;;1.80;0.80;;;;;;;;;;5175947;23;20043;-61
2023/06/09 11:54:48;;;;;;;0.80;0.80;;;;;;;;;;5175871;23;20023;-61
2023/06/09 11:57:11;;;;;;;0.70;0.70;;;;;;;;;;5175882;23;20027;-61
2023/06/09 11:59:31;;;;;;;0.60;0.60;;;;;;;;;;5175811;23;20059;-60
2023/06/09 12:01:57;;;;;;;0.90;0.70;;;;;;;;;;5175893;23;20042;-61
2023/06/09 12:04:18;;;;;;;0.60;0.60;;;;;;;;;;5176025;23;20023;-61
2023/06/09 12:06:40;;;;;;;2.05;0.63;;;;;;;;;;5175907;23;20076;-61
2023/06/09 12:09:24;;;;;;;1.90;0.70;;;;;;;;;;5175843;23;20404;-62
2023/06/09 12:11:49;;;;;;;0.70;0.70;;;;;;;;;;5175809;23;20335;-61
2023/06/09 12:14:12;;;;;;;0.70;0.70;;;;;;;;;;5175771;23;20070;-61
2023/06/09 12:16:33;;;;;;;0.73;0.60;;;;;;;;;;5175728;23;20027;-61
2023/06/09 12:18:54;;;;;;;1.85;0.60;;;;;;;;;;5175769;23;20119;-61
2023/06/09 12:21:15;;;;;;;1.52;0.60;;;;;;;;;;5175691;23;20024;-61
2023/06/09 12:23:36;;;;;;;0.60;0.60;;;;;;;;;;5175748;23;20057;-61
2023/06/09 12:26:07;;;;;;;0.80;0.80;;;;;;;;;;5175720;23;20326;-61
2023/06/09 12:28:32;;;;;;;1.10;0.85;;;;;;;;;;5175717;23;20202;-61
2023/06/09 12:30:53;;;;;;;0.60;0.60;;;;;;;;;;5175591;23;20023;-61
2023/06/09 12:33:23;;;;;;;0.70;0.70;;;;;;;;;;5175972;23;20027;-60
2023/06/09 12:35:46;;;;;;;0.85;0.70;;;;;;;;;;5163910;23;20023;-59
2023/06/09 12:38:10;;;;;;;0.70;0.70;;;;;;;;;;5175620;23;20027;-59
2023/06/09 12:40:41;;;;;;;0.70;0.70;;;;;;;;;;5175400;23;20070;-59
2023/06/09 12:43:06;;;;;;;0.70;0.70;;;;;;;;;;5175574;23;20062;-59
2023/06/09 12:45:35;;;;;;;1.05;0.85;;;;;;;;;;5175546;23;20022;-59
2023/06/09 12:47:57;;;;;;;3.45;0.70;;;;;;;;;;5175548;23;20031;-59
2023/06/09 12:50:18;;;;;;;0.68;0.68;;;;;;;;;;5175493;23;20223;-59
2023/06/09 12:52:40;;;;;;;0.70;0.70;;;;;;;;;;5175535;23;20038;-59
2023/06/09 12:55:01;;;;;;;0.60;0.60;;;;;;;;;;5175547;23;20067;-60
2023/06/09 12:57:31;;;;;;;0.70;0.70;;;;;;;;;;5176646;23;20027;-60
2023/06/09 12:59:52;;;;;;;0.82;0.80;;;;;;;;;;5176420;23;20066;-60
2023/06/09 13:02:12;;;;;;;0.70;0.70;;;;;;;;;;5176616;23;20249;-60
2023/06/09 13:04:33;;;;;;;0.90;0.60;;;;;;;;;;5176486;23;20038;-59
2023/06/09 13:06:54;;;;;;;5.03;0.70;;;;;;;;;;5176531;23;20031;-60
2023/06/09 13:09:14;;;;;;;1.63;0.70;;;;;;;;;;5176549;23;20023;-60
2023/06/09 13:11:36;;;;;;;0.60;0.60;;;;;;;;;;5176668;23;20054;-60
2023/06/09 13:13:57;;;;;;;1.50;0.60;;;;;;;;;;5176612;23;20254;-59
2023/06/09 13:16:18;;;;;;;4.22;0.70;;;;;;;;;;5165403;23;20074;-60
2023/06/09 13:18:39;;;;;;;0.60;0.60;;;;;;;;;;5176547;23;20066;-60
2023/06/09 13:21:00;;;;;;;;;;;;;;;;;;5176861;23;20027;-60
2023/06/09 13:23:21;;;;;;;1.40;0.70;;;;;;;;;;5176476;23;19953;-61
2023/06/09 13:25:42;;;;;;;1.65;0.70;;;;;;;;;;5176579;23;20062;-60
2023/06/09 13:28:03;;;;;;;0.80;0.80;;;;;;;;;;5176527;23;20026;-60
2023/06/09 13:30:24;;;;;;;0.82;0.82;;;;;;;;;;5172846;23;20066;-60
2023/06/09 13:32:46;;;;;;;0.50;0.50;;;;;;;;;;5176487;23;20066;-60
2023/06/09 13:35:06;;;;;;;2.67;0.60;;;;;;;;;;5176547;23;20295;-60
2023/06/09 13:37:28;;;;;;;0.70;0.70;;;;;;;;;;5176494;23;20119;-60
2023/06/09 13:39:49;;;;;;;2.38;0.75;;;;;;;;;;5176306;23;20023;-60
2023/06/09 13:42:09;;;;;;;1.90;0.60;;;;;;;;;;5152077;23;20257;-60
2023/06/09 13:44:29;;;;;;;0.60;0.60;;;;;;;;;;5176477;23;20072;-60
2023/06/09 13:46:50;;;;;;;1.45;0.75;;;;;;;;;;5176360;23;20066;-60
2023/06/09 13:49:10;;;;;;;1.45;0.70;;;;;;;;;;5176484;23;20086;-60
2023/06/09 13:51:34;;;;;;;;;;;;;;;;;;5176846;23;20023;-59
2023/06/09 13:53:56;;;;;;;0.60;0.60;;;;;;;;;;5176348;23;19919;-60
2023/06/09 13:56:19;;;;;;;1.30;0.60;;;;;;;;;;5176462;23;20027;-60
2023/06/09 13:58:41;;;;;;;0.95;0.60;;;;;;;;;;5176422;23;20023;-60
2023/06/09 14:01:02;;;;;;;1.08;1.08;;;;;;;;;;5176261;23;20062;-60
2023/06/09 14:03:23;;;;;;;2.15;0.60;;;;;;;;;;5176419;23;20334;-61
2023/06/09 14:05:44;;;;;;;0.60;0.60;;;;;;;;;;5176440;23;20075;-59
2023/06/09 14:08:04;;;;;;;0.70;0.70;;;;;;;;;;5176221;23;20311;-60
2023/06/09 14:10:26;;;;;;;1.63;0.70;;;;;;;;;;5176312;23;20023;-60
2023/06/09 14:12:47;;;;;;;1.10;0.80;;;;;;;;;;5176429;23;20061;-60
2023/06/09 14:15:12;;;;;;;0.70;0.70;;;;;;;;;;5176319;23;20126;-60
2023/06/09 14:17:33;;;;;;;0.73;0.70;;;;;;;;;;5176285;23;20035;-60
2023/06/09 14:19:55;;;;;;;3.13;1.30;;;;;;;;;;5176345;23;20023;-60
2023/06/09 14:22:15;;;;;;;4.95;0.82;;;;;;;;;;5176330;23;20067;-60
2023/06/09 14:24:36;;;;;;;0.70;0.70;;;;;;;;;;5176238;23;20211;-60